createdAt,value
2023-01-21T00:01:54.015Z,102794.97
2023-01-21T00:04:20.631Z,102796.72
2023-01-21T00:06:47.181Z,102807.47
2023-01-21T00:09:13.845Z,102815.47
2023-01-21T00:11:40.539Z,102814.63
2023-01-21T00:14:07.125Z,102819.09
2023-01-21T00:16:33.643Z,102822.72
2023-01-21T00:19:00.158Z,102832.47
2023-01-21T00:21:26.666Z,102839.63
2023-01-21T00:23:53.153Z,102847.59
2023-01-21T00:26:19.622Z,102845.81
2023-01-21T00:28:46.663Z,102849.34
2023-01-21T00:31:13.697Z,102844.94
2023-01-21T00:33:40.256Z,102844.88
2023-01-21T00:36:11.739Z,102851.13
2023-01-21T00:38:38.462Z,102851.06
2023-01-21T00:41:07.482Z,102840.47
2023-01-21T00:43:34.552Z,102841.38
2023-01-21T00:46:01.154Z,102843.13
2023-01-21T00:48:28.582Z,102840.47
2023-01-21T00:50:58.989Z,102841.38
2023-01-21T00:53:26.108Z,102842.28
2023-01-21T00:55:52.805Z,102850.28
2023-01-21T00:58:19.513Z,102852.94
2023-01-21T01:00:46.231Z,102852.94
2023-01-21T01:03:12.751Z,102865.41
2023-01-21T01:05:39.258Z,102869.00
2023-01-21T01:08:05.831Z,102873.41
2023-01-21T01:10:32.415Z,102869.97
2023-01-21T01:13:01.084Z,102882.41
2023-01-21T01:15:27.580Z,102878.00
2023-01-21T01:17:54.125Z,102886.00
2023-01-21T01:20:20.667Z,102882.56
2023-01-21T01:22:47.234Z,102880.75
2023-01-21T01:25:13.805Z,102894.09
2023-01-21T01:27:40.340Z,102891.41
2023-01-21T01:30:07.705Z,102894.13
2023-01-21T01:32:34.613Z,102895.88
2023-01-21T01:35:01.153Z,102907.41
2023-01-21T01:37:27.651Z,102914.47
2023-01-21T01:39:54.174Z,102915.41
2023-01-21T01:42:21.191Z,102919.78
2023-01-21T01:45:06.103Z,102929.69
2023-01-21T01:47:42.507Z,102934.84
2023-01-21T01:50:14.942Z,102933.03
2023-01-21T01:52:43.047Z,102931.31
2023-01-21T01:55:11.500Z,102929.50
2023-01-21T01:57:46.697Z,102932.16
2023-01-21T02:00:14.417Z,102925.91
2023-01-21T02:02:43.113Z,102926.84
2023-01-21T02:05:11.140Z,102928.72
2023-01-21T02:07:42.536Z,102927.88
2023-01-21T02:10:12.606Z,102932.34
2023-01-21T02:12:42.156Z,102937.66
2023-01-21T02:15:09.594Z,102942.09
2023-01-21T02:17:58.271Z,102954.66
2023-01-21T02:20:40.544Z,102956.50
2023-01-21T02:23:10.040Z,102960.84
2023-01-21T02:26:04.569Z,102959.25
2023-01-21T02:29:09.095Z,102973.53
2023-01-21T02:31:41.413Z,102979.63
2023-01-21T02:34:16.942Z,102973.44
2023-01-21T02:37:10.844Z,102974.47
2023-01-21T02:39:54.984Z,102981.56
2023-01-21T02:42:33.460Z,102986.00
2023-01-21T02:45:16.245Z,103001.75
2023-01-21T02:48:06.441Z,103004.56
2023-01-21T02:50:52.432Z,103008.94
2023-01-21T02:53:26.470Z,103016.06
2023-01-21T02:55:53.669Z,103016.03
2023-01-21T02:58:29.128Z,103016.06
2023-01-21T03:01:24.618Z,103016.94
2023-01-21T03:04:42.270Z,103024.06
2023-01-21T03:07:11.523Z,103024.94
2023-01-21T03:09:38.094Z,103025.88
2023-01-21T03:12:16.365Z,103034.81
2023-01-21T03:15:26.040Z,103040.19
2023-01-21T03:18:01.086Z,103034.81
2023-01-21T03:20:34.261Z,103041.09
2023-01-21T03:23:09.149Z,103043.75
2023-01-21T03:25:38.027Z,103040.13
2023-01-21T03:28:09.124Z,103038.41
2023-01-21T03:30:40.221Z,103036.66
2023-01-21T03:33:09.226Z,103037.47
2023-01-21T03:35:42.103Z,103043.75
2023-01-21T03:38:26.769Z,103040.28
2023-01-21T03:41:02.513Z,103048.19
2023-01-21T03:43:29.253Z,103049.94
2023-01-21T03:46:04.262Z,103046.41
2023-01-21T03:48:57.265Z,103047.31
2023-01-21T03:51:30.497Z,103052.59
2023-01-21T03:53:59.326Z,103051.75
2023-01-21T03:56:27.057Z,103055.25
2023-01-21T03:58:53.731Z,103058.84
2023-01-21T04:01:20.411Z,103062.41
2023-01-21T04:03:46.979Z,103062.41
2023-01-21T04:06:15.173Z,103073.97
2023-01-21T04:08:41.825Z,103075.78
2023-01-21T04:11:08.362Z,103075.78
2023-01-21T04:13:35.056Z,103083.72
2023-01-21T04:16:01.586Z,103084.72
2023-01-21T04:18:28.090Z,103074.06
2023-01-21T04:20:54.687Z,103082.03
2023-01-21T04:23:21.401Z,103081.22
2023-01-21T04:25:48.865Z,103080.31
2023-01-21T04:28:15.542Z,103078.56
2023-01-21T04:30:42.116Z,103084.78
2023-01-21T04:33:08.674Z,103081.22
2023-01-21T04:35:36.496Z,103086.56
2023-01-21T04:38:05.041Z,103085.69
2023-01-21T04:40:31.873Z,103083.91
2023-01-21T04:42:58.446Z,103087.44
2023-01-21T04:45:25.008Z,103083.84
2023-01-21T04:47:51.489Z,103091.88
2023-01-21T04:50:18.986Z,103090.03
2023-01-21T04:52:45.657Z,103084.72
2023-01-21T04:55:12.205Z,103083.84
2023-01-21T04:57:38.768Z,103086.44
2023-01-21T05:00:07.601Z,103088.22
2023-01-21T05:02:34.575Z,103090.03
2023-01-21T05:05:01.288Z,103090.91
2023-01-21T05:07:27.835Z,103091.84
2023-01-21T05:09:54.325Z,103089.19
2023-01-21T05:12:21.038Z,103098.97
2023-01-21T05:14:47.589Z,103101.69
2023-01-21T05:17:14.442Z,103104.34
2023-01-21T05:19:40.914Z,103114.97
2023-01-21T05:22:07.591Z,103117.66
2023-01-21T05:24:34.368Z,103113.19
2023-01-21T05:27:01.325Z,103117.75
2023-01-21T05:29:27.823Z,103115.09
2023-01-21T05:31:54.365Z,103113.38
2023-01-21T05:34:20.923Z,103120.50
2023-01-21T05:36:47.478Z,103127.59
2023-01-21T05:39:14.006Z,103130.25
2023-01-21T05:41:40.541Z,103133.81
2023-01-21T05:44:09.009Z,103129.34
2023-01-21T05:46:35.726Z,103121.41
2023-01-21T05:49:02.259Z,103132.91
2023-01-21T05:51:28.741Z,103133.88
2023-01-21T05:53:55.626Z,103144.47
2023-01-21T05:56:22.162Z,103148.84
2023-01-21T05:58:48.700Z,103153.31
2023-01-21T06:01:15.249Z,103162.19
2023-01-21T06:03:41.768Z,103162.19
2023-01-21T06:06:08.450Z,103172.84
2023-01-21T06:08:34.947Z,103183.50
2023-01-21T06:11:01.489Z,103178.16
2023-01-21T06:13:28.067Z,103183.50
2023-01-21T06:15:58.571Z,103187.09
2023-01-21T06:18:25.248Z,103193.28
2023-01-21T06:20:51.783Z,103195.13
2023-01-21T06:23:18.589Z,103205.78
2023-01-21T06:25:45.402Z,103200.47
2023-01-21T06:28:12.376Z,103202.34
2023-01-21T06:30:39.229Z,103213.00
2023-01-21T06:33:05.727Z,103213.88
2023-01-21T06:35:32.341Z,103215.66
2023-01-21T06:37:59.077Z,103218.38
2023-01-21T06:40:25.797Z,103217.47
2023-01-21T06:42:53.810Z,103224.66
2023-01-21T06:45:20.600Z,103230.84
2023-01-21T06:47:47.193Z,103228.16
2023-01-21T06:50:16.094Z,103225.50
2023-01-21T06:52:44.445Z,103233.44
2023-01-21T06:55:11.434Z,103239.69
2023-01-21T06:57:38.837Z,103246.78
2023-01-21T07:00:06.990Z,103244.03
2023-01-21T07:02:33.548Z,103257.34
2023-01-21T07:05:00.283Z,103261.75
2023-01-21T07:07:27.299Z,103260.88
2023-01-21T07:09:53.846Z,103254.59
2023-01-21T07:12:20.342Z,103265.34
2023-01-21T07:14:46.832Z,103267.19
2023-01-21T07:17:13.661Z,103269.81
2023-01-21T07:19:40.159Z,103273.41
2023-01-21T07:22:06.824Z,103284.97
2023-01-21T07:24:33.354Z,103283.25
2023-01-21T07:27:00.193Z,103288.56
2023-01-21T07:29:27.991Z,103286.84
2023-01-21T07:31:54.505Z,103286.00
2023-01-21T07:34:21.003Z,103291.38
2023-01-21T07:36:47.544Z,103287.84
2023-01-21T07:39:14.397Z,103294.09
2023-01-21T07:41:40.880Z,103303.91
2023-01-21T07:44:08.563Z,103304.81
2023-01-21T07:46:36.116Z,103305.69
2023-01-21T07:49:02.657Z,103296.03
2023-01-21T07:51:29.243Z,103292.50
2023-01-21T07:53:56.764Z,103298.69
2023-01-21T07:56:25.071Z,103312.94
2023-01-21T07:58:51.667Z,103318.28
2023-01-21T08:01:18.245Z,103312.94
2023-01-21T08:03:44.798Z,103321.84
2023-01-21T08:06:11.283Z,103320.94
2023-01-21T08:08:37.847Z,103323.63
2023-01-21T08:11:04.416Z,103317.41
2023-01-21T08:13:30.975Z,103324.50
2023-01-21T08:15:57.681Z,103328.97
2023-01-21T08:18:25.032Z,103333.44
2023-01-21T08:20:56.334Z,103333.50
2023-01-21T08:23:23.212Z,103351.22
2023-01-21T08:25:50.094Z,103347.69
2023-01-21T08:28:17.122Z,103361.88
2023-01-21T08:30:43.989Z,103365.38
2023-01-21T08:33:10.675Z,103363.59
2023-01-21T08:35:37.218Z,103360.03
2023-01-21T08:38:03.740Z,103369.75
2023-01-21T08:40:30.282Z,103375.06
2023-01-21T08:43:04.051Z,103395.38
2023-01-21T08:45:31.187Z,103390.22
2023-01-21T08:47:57.760Z,103398.84
2023-01-21T08:50:24.796Z,103403.34
2023-01-21T08:52:55.803Z,103401.72
2023-01-21T08:55:27.118Z,103401.72
2023-01-21T08:57:58.377Z,103406.16
2023-01-21T09:00:25.645Z,103397.31
2023-01-21T09:02:52.385Z,103399.09
2023-01-21T09:05:19.828Z,103397.34
2023-01-21T09:07:46.957Z,103401.81
2023-01-21T09:10:33.958Z,103401.81
2023-01-21T09:13:04.661Z,103400.97
2023-01-21T09:15:31.214Z,103392.97
2023-01-21T09:17:57.753Z,103393.81
2023-01-21T09:20:24.305Z,103399.16
2023-01-21T09:22:50.817Z,103401.81
2023-01-21T09:25:17.464Z,103405.34
2023-01-21T09:27:44.571Z,103407.06
2023-01-21T09:30:11.310Z,103415.06
2023-01-21T09:32:37.848Z,103417.72
2023-01-21T09:35:04.808Z,103429.22
2023-01-21T09:37:34.710Z,103435.47
2023-01-21T09:40:01.818Z,103431.88
2023-01-21T09:42:32.209Z,103443.31
2023-01-21T09:45:01.639Z,103438.06
2023-01-21T09:47:36.145Z,103451.31
2023-01-21T09:50:14.108Z,103454.78
2023-01-21T09:52:43.449Z,103450.28
2023-01-21T09:55:34.308Z,103460.94
2023-01-21T09:58:26.856Z,103455.56
2023-01-21T10:01:16.810Z,103452.81
2023-01-21T10:03:59.262Z,103461.63
2023-01-21T10:06:30.765Z,103458.91
2023-01-21T10:09:11.524Z,103459.75
2023-01-21T10:12:15.465Z,103465.09
2023-01-21T10:15:15.047Z,103465.91
2023-01-21T10:18:03.494Z,103480.97
2023-01-21T10:20:46.020Z,103463.13
2023-01-21T10:23:31.796Z,103464.88
2023-01-21T10:26:01.709Z,103468.28
2023-01-21T10:28:33.166Z,103470.94
2023-01-21T10:31:20.885Z,103472.75
2023-01-21T10:33:47.556Z,103464.69
2023-01-21T10:36:19.961Z,103473.59
2023-01-21T10:39:13.457Z,103470.00
2023-01-21T10:42:07.505Z,103469.94
2023-01-21T10:44:45.204Z,103475.25
2023-01-21T10:47:39.441Z,103478.78
2023-01-21T10:50:37.069Z,103475.22
2023-01-21T10:53:22.192Z,103468.97
2023-01-21T10:55:54.375Z,103478.75
2023-01-21T10:58:37.204Z,103468.97
2023-01-21T11:01:07.912Z,103464.50
2023-01-21T11:03:42.290Z,103473.34
2023-01-21T11:06:12.502Z,103475.06
2023-01-21T11:08:41.206Z,103476.84
2023-01-21T11:11:08.604Z,103468.78
2023-01-21T11:13:35.596Z,103474.97
2023-01-21T11:16:04.411Z,103478.50
2023-01-21T11:18:32.875Z,103479.31
2023-01-21T11:21:02.991Z,103467.72
2023-01-21T11:23:31.197Z,103471.22
2023-01-21T11:26:10.226Z,103470.28
2023-01-21T11:28:36.953Z,103474.63
2023-01-21T11:31:23.290Z,103480.81
2023-01-21T11:33:50.049Z,103486.00
2023-01-21T11:36:18.951Z,103479.75
2023-01-21T11:38:57.661Z,103481.41
2023-01-21T11:41:25.077Z,103479.56
2023-01-21T11:44:07.011Z,103484.84
2023-01-21T11:46:38.683Z,103483.97
2023-01-21T11:49:08.115Z,103482.16
2023-01-21T11:51:35.138Z,103477.69
2023-01-21T11:54:21.193Z,103475.97
2023-01-21T11:57:02.052Z,103474.16
2023-01-21T11:59:35.581Z,103475.03
2023-01-21T12:02:16.128Z,103472.31
2023-01-21T12:04:49.122Z,103471.38
2023-01-21T12:07:29.855Z,103474.13
2023-01-21T12:10:12.390Z,103472.25
2023-01-21T12:13:00.501Z,103476.63
2023-01-21T12:15:58.013Z,103469.50
2023-01-21T12:18:58.568Z,103465.06
2023-01-21T12:21:50.967Z,103464.06
2023-01-21T12:24:42.374Z,103467.59
2023-01-21T12:27:27.546Z,103454.22
2023-01-21T12:30:02.839Z,103460.28
2023-01-21T12:32:56.740Z,103453.06
2023-01-21T12:35:49.042Z,103461.94
2023-01-21T12:38:27.809Z,103453.03
2023-01-21T12:41:03.316Z,103438.75
2023-01-21T12:43:34.547Z,103435.16
2023-01-21T12:46:10.791Z,103442.22
2023-01-21T12:49:12.427Z,103442.22
2023-01-21T12:51:42.577Z,103436.75
2023-01-21T12:54:41.629Z,103435.97
2023-01-21T12:57:39.472Z,103437.75
2023-01-21T13:00:14.591Z,103440.38
2023-01-21T13:02:52.329Z,103433.31
2023-01-21T13:05:47.696Z,103436.88
2023-01-21T13:08:41.977Z,103440.38
2023-01-21T13:11:20.679Z,103441.31
2023-01-21T13:14:14.123Z,103442.22
2023-01-21T13:16:50.247Z,103442.16
2023-01-21T13:19:16.893Z,103447.50
2023-01-21T13:21:58.414Z,103451.06
2023-01-21T13:24:33.376Z,103441.31
2023-01-21T13:27:22.402Z,103440.41
2023-01-21T13:30:19.356Z,103446.63
2023-01-21T13:32:57.580Z,103446.63
2023-01-21T13:35:38.698Z,103443.06
2023-01-21T13:38:24.687Z,103447.53
2023-01-21T13:41:15.390Z,103449.31
2023-01-21T13:43:54.477Z,103451.03
2023-01-21T13:46:39.156Z,103454.63
2023-01-21T13:49:20.483Z,103451.03
2023-01-21T13:52:12.746Z,103453.69
2023-01-21T13:54:55.443Z,103451.91
2023-01-21T13:57:27.666Z,103454.50
2023-01-21T14:00:12.777Z,103461.63
2023-01-21T14:02:52.632Z,103466.91
2023-01-21T14:05:26.454Z,103467.78
2023-01-21T14:08:13.121Z,103474.03
2023-01-21T14:10:48.076Z,103473.97
2023-01-21T14:13:46.153Z,103471.34
2023-01-21T14:16:43.464Z,103479.34
2023-01-21T14:19:16.218Z,103486.44
2023-01-21T14:22:13.393Z,103498.97
2023-01-21T14:24:52.704Z,103497.25
2023-01-21T14:27:31.264Z,103488.38
2023-01-21T14:30:04.804Z,103495.56
2023-01-21T14:32:39.981Z,103493.81
2023-01-21T14:35:15.919Z,103502.75
2023-01-21T14:37:57.668Z,103506.38
2023-01-21T14:40:33.368Z,103501.91
2023-01-21T14:43:00.474Z,103506.38
2023-01-21T14:45:53.619Z,103507.34
2023-01-21T14:48:39.794Z,103501.16
2023-01-21T14:51:06.312Z,103502.75
2023-01-21T14:53:43.385Z,103506.41
2023-01-21T14:56:19.258Z,103499.28
2023-01-21T14:58:58.506Z,103509.94
2023-01-21T15:01:28.179Z,103501.94
2023-01-21T15:03:56.605Z,103505.47
2023-01-21T15:06:25.707Z,103505.47
2023-01-21T15:08:57.652Z,103505.47
2023-01-21T15:11:44.047Z,103512.69
2023-01-21T15:14:33.248Z,103517.09
2023-01-21T15:17:00.045Z,103519.72
2023-01-21T15:19:34.571Z,103521.47
2023-01-21T15:22:18.537Z,103527.75
2023-01-21T15:25:01.488Z,103533.16
2023-01-21T15:27:28.172Z,103536.69
2023-01-21T15:29:54.736Z,103541.16
2023-01-21T15:32:26.876Z,103540.28
2023-01-21T15:35:11.975Z,103551.94
2023-01-21T15:37:43.884Z,103551.94
2023-01-21T15:40:24.539Z,103567.13
2023-01-21T15:42:55.060Z,103563.53
2023-01-21T15:45:27.473Z,103554.72
2023-01-21T15:48:06.503Z,103563.66
2023-01-21T15:51:02.286Z,103560.03
2023-01-21T15:53:50.469Z,103564.50
2023-01-21T15:56:39.322Z,103575.19
2023-01-21T15:59:35.357Z,103571.56
2023-01-21T16:02:15.604Z,103575.09
2023-01-21T16:05:00.978Z,103577.84
2023-01-21T16:07:38.252Z,103579.53
2023-01-21T16:10:27.313Z,103578.66
2023-01-21T16:13:06.063Z,103572.44
2023-01-21T16:16:02.298Z,103568.91
2023-01-21T16:18:38.151Z,103563.56
2023-01-21T16:21:04.878Z,103556.44
2023-01-21T16:23:39.565Z,103563.56
2023-01-21T16:26:06.126Z,103576.91
2023-01-21T16:28:49.660Z,103572.59
2023-01-21T16:31:16.562Z,103580.50
2023-01-21T16:33:43.368Z,103578.78
2023-01-21T16:36:14.133Z,103583.28
2023-01-21T16:38:42.871Z,103578.81
2023-01-21T16:41:12.513Z,103578.91
2023-01-21T16:43:49.056Z,103581.56
2023-01-21T16:46:18.589Z,103579.75
2023-01-21T16:48:53.624Z,103578.91
2023-01-21T16:51:28.595Z,103582.50
2023-01-21T16:54:19.925Z,103591.44
2023-01-21T16:56:53.173Z,103596.69
2023-01-21T16:59:40.694Z,103591.44
2023-01-21T17:02:25.232Z,103588.78
2023-01-21T17:04:52.151Z,103594.09
2023-01-21T17:07:30.470Z,103591.44
2023-01-21T17:10:02.345Z,103588.78
2023-01-21T17:12:30.707Z,103593.16
2023-01-21T17:15:01.537Z,103592.31
2023-01-21T17:17:32.874Z,103592.31
2023-01-21T17:20:00.222Z,103593.16
2023-01-21T17:22:33.169Z,103586.97
2023-01-21T17:25:05.179Z,103593.16
2023-01-21T17:27:33.251Z,103596.69
2023-01-21T17:30:24.892Z,103601.28
2023-01-21T17:32:57.051Z,103601.16
2023-01-21T17:35:25.489Z,103596.81
2023-01-21T17:37:56.336Z,103593.28
2023-01-21T17:40:45.557Z,103593.28
2023-01-21T17:43:25.833Z,103588.00
2023-01-21T17:45:54.925Z,103588.88
2023-01-21T17:48:30.965Z,103596.88
2023-01-21T17:51:11.710Z,103596.88
2023-01-21T17:53:46.301Z,103607.53
2023-01-21T17:56:13.370Z,103603.94
2023-01-21T17:58:52.736Z,103605.75
2023-01-21T18:01:21.099Z,103599.47
2023-01-21T18:03:47.716Z,103606.53
2023-01-21T18:06:20.425Z,103598.53
2023-01-21T18:08:47.026Z,103603.81
2023-01-21T18:11:16.089Z,103594.03
2023-01-21T18:13:42.826Z,103593.16
2023-01-21T18:16:10.054Z,103603.75
2023-01-21T18:18:38.497Z,103605.56
2023-01-21T18:21:05.612Z,103605.56
2023-01-21T18:23:32.665Z,103604.69
2023-01-21T18:25:59.253Z,103602.09
2023-01-21T18:28:28.688Z,103597.66
2023-01-21T18:30:57.775Z,103606.53
2023-01-21T18:33:25.069Z,103607.47
2023-01-21T18:35:52.547Z,103608.41
2023-01-21T18:38:22.307Z,103606.69
2023-01-21T18:40:48.832Z,103596.91
2023-01-21T18:43:15.394Z,103598.72
2023-01-21T18:45:41.913Z,103606.72
2023-01-21T18:48:14.870Z,103601.47
2023-01-21T18:50:41.933Z,103602.31
2023-01-21T18:53:09.183Z,103608.53
2023-01-21T18:55:35.896Z,103608.53
2023-01-21T18:58:04.514Z,103606.78
2023-01-21T19:00:33.964Z,103602.38
2023-01-21T19:03:01.625Z,103609.53
2023-01-21T19:05:34.017Z,103607.72
2023-01-21T19:08:01.692Z,103611.28
2023-01-21T19:10:28.630Z,103600.59
2023-01-21T19:12:55.302Z,103608.63
2023-01-21T19:15:25.364Z,103611.28
2023-01-21T19:17:52.627Z,103602.44
2023-01-21T19:20:20.685Z,103601.56
2023-01-21T19:22:48.247Z,103599.84
2023-01-21T19:25:15.463Z,103598.03
2023-01-21T19:27:44.108Z,103601.56
2023-01-21T19:30:31.485Z,103609.63
2023-01-21T19:33:00.755Z,103603.44
2023-01-21T19:35:36.516Z,103608.78
2023-01-21T19:38:09.890Z,103603.44
2023-01-21T19:40:36.724Z,103611.44
2023-01-21T19:43:03.663Z,103616.75
2023-01-21T19:45:30.678Z,103610.59
2023-01-21T19:47:57.268Z,103617.66
2023-01-21T19:50:26.681Z,103612.34
2023-01-21T19:52:54.250Z,103611.47
2023-01-21T19:55:23.414Z,103604.41
2023-01-21T19:57:59.535Z,103604.47
2023-01-21T20:00:29.559Z,103606.22
2023-01-21T20:02:56.128Z,103608.88
2023-01-21T20:05:24.123Z,103602.69
2023-01-21T20:07:51.029Z,103609.81
2023-01-21T20:10:20.870Z,103603.53
2023-01-21T20:12:48.475Z,103600.88
2023-01-21T20:15:17.426Z,103600.00
2023-01-21T20:17:47.031Z,103600.06
2023-01-21T20:20:19.092Z,103614.28
2023-01-21T20:22:46.181Z,103616.03
2023-01-21T20:25:25.344Z,103616.97
2023-01-21T20:28:00.429Z,103624.03
2023-01-21T20:30:30.488Z,103628.47
2023-01-21T20:32:58.160Z,103634.69
2023-01-21T20:35:27.019Z,103626.72
2023-01-21T20:37:55.615Z,103626.72
2023-01-21T20:40:25.657Z,103625.84
2023-01-21T20:42:53.696Z,103626.72
2023-01-21T20:45:24.745Z,103627.63
2023-01-21T20:47:54.591Z,103629.44
2023-01-21T20:50:22.480Z,103632.09
2023-01-21T20:52:50.331Z,103628.56
2023-01-21T20:55:20.911Z,103628.56
2023-01-21T20:57:47.761Z,103635.72
2023-01-21T21:00:16.895Z,103634.84
2023-01-21T21:02:43.595Z,103630.38
2023-01-21T21:05:10.145Z,103632.19
2023-01-21T21:07:36.671Z,103626.84
2023-01-21T21:10:04.728Z,103627.75
2023-01-21T21:12:31.285Z,103636.59
2023-01-21T21:14:57.833Z,103634.88
2023-01-21T21:17:24.359Z,103630.41
2023-01-21T21:19:50.878Z,103632.19
2023-01-21T21:22:17.726Z,103634.84
2023-01-21T21:24:44.246Z,103625.94
2023-01-21T21:27:12.430Z,103624.22
2023-01-21T21:29:38.979Z,103631.28
2023-01-21T21:32:06.764Z,103633.03
2023-01-21T21:34:34.969Z,103634.84
2023-01-21T21:37:01.559Z,103636.56
2023-01-21T21:39:28.158Z,103624.97
2023-01-21T21:42:15.826Z,103632.97
2023-01-21T21:44:43.590Z,103627.59
2023-01-21T21:47:29.717Z,103622.28
2023-01-21T21:49:56.311Z,103639.13
2023-01-21T21:52:24.223Z,103626.72
2023-01-21T21:54:51.137Z,103628.50
2023-01-21T21:57:17.982Z,103631.16
2023-01-21T21:59:44.492Z,103627.63
2023-01-21T22:02:11.963Z,103624.97
2023-01-21T22:04:38.614Z,103631.25
2023-01-21T22:07:05.162Z,103629.44
2023-01-21T22:09:33.997Z,103626.84
2023-01-21T22:12:01.198Z,103625.94
2023-01-21T22:14:27.940Z,103623.28
2023-01-21T22:16:54.634Z,103620.63
2023-01-21T22:19:21.173Z,103616.28
2023-01-21T22:21:47.725Z,103619.88
2023-01-21T22:24:15.671Z,103625.22
2023-01-21T22:26:42.319Z,103619.00
2023-01-21T22:29:08.924Z,103614.56
2023-01-21T22:31:35.733Z,103612.78
2023-01-21T22:34:02.452Z,103614.66
2023-01-21T22:36:30.187Z,103612.00
2023-01-21T22:38:57.028Z,103609.34
2023-01-21T22:41:24.533Z,103603.13
2023-01-21T22:43:52.301Z,103603.19
2023-01-21T22:46:22.356Z,103606.72
2023-01-21T22:48:49.212Z,103612.03
2023-01-21T22:51:18.618Z,103600.50
2023-01-21T22:53:45.650Z,103599.66
2023-01-21T22:56:14.367Z,103594.31
2023-01-21T22:58:41.226Z,103608.50
2023-01-21T23:01:08.348Z,103600.50
2023-01-21T23:03:34.977Z,103596.06
2023-01-21T23:06:06.380Z,103592.59
2023-01-21T23:08:33.334Z,103589.94
2023-01-21T23:11:02.397Z,103593.44
2023-01-21T23:13:29.380Z,103584.66
2023-01-21T23:15:56.355Z,103588.19
2023-01-21T23:18:23.003Z,103588.22
2023-01-21T23:20:49.599Z,103577.56
2023-01-21T23:23:16.171Z,103586.50
2023-01-21T23:25:44.223Z,103584.78
2023-01-21T23:28:14.502Z,103583.94
2023-01-21T23:30:41.478Z,103586.59
2023-01-21T23:33:08.402Z,103582.16
2023-01-21T23:35:35.234Z,103589.34
2023-01-21T23:38:03.175Z,103585.81
2023-01-21T23:40:29.719Z,103584.00
2023-01-21T23:42:56.248Z,103588.47
2023-01-21T23:45:22.759Z,103584.94
2023-01-21T23:47:49.317Z,103591.19
2023-01-21T23:50:16.428Z,103592.97
2023-01-21T23:52:43.277Z,103586.78
2023-01-21T23:55:10.684Z,103584.97
2023-01-21T23:57:37.607Z,103595.59
